Time;durP1;ratioP1;P1;durP2;ratioP2;P2;SDS_P1;SDS_P2;PMS_P1;PMS_P2;Temp;Humidity;BMP_temperature;BMP_pressure;BME280_temperature;BME280_humidity;BME280_pressure;Samples;Min_cycle;Max_cycle;Signal;HPM_P1;HPM_P2
2023/07/27 00:00:56;;;;;;;;;;;;;;;16.85;68.33;100947.38;4905510;29;19952;-82
2023/07/27 00:03:22;;;;;;;;;;;;;;;16.79;69.99;100940.50;4920987;29;20259;-82
2023/07/27 00:05:47;;;;;;;;;;;;;;;16.72;70.60;100942.56;4920405;29;19976;-83
2023/07/27 00:08:12;;;;;;;;;;;;;;;16.64;67.04;100942.03;4937552;29;19923;-82
2023/07/27 00:10:38;;;;;;;;;;;;;;;16.57;68.36;100940.56;4925724;29;19930;-81
2023/07/27 00:13:03;;;;;;;;;;;;;;;16.49;70.35;100932.00;4936833;29;20354;-81
2023/07/27 00:15:28;;;;;;;;;;;;;;;16.43;71.23;100933.16;4936691;29;19926;-81
2023/07/27 00:17:54;;;;;;;;;;;;;;;16.39;72.53;100931.56;4938469;29;19922;-81
2023/07/27 00:20:19;;;;;;;;;;;;;;;16.33;69.94;100924.69;4921963;29;19923;-81
2023/07/27 00:22:45;;;;;;;;;;;;;;;16.28;73.67;100928.50;4922208;29;20029;-81
2023/07/27 00:25:10;;;;;;;;;;;;;;;16.25;70.94;100923.31;4934094;29;19942;-80
2023/07/27 00:27:35;;;;;;;;;;;;;;;16.20;69.75;100918.16;4927618;29;19930;-81
2023/07/27 00:30:01;;;;;;;;;;;;;;;16.17;70.18;100917.41;4935420;29;19922;-81
2023/07/27 00:32:26;;;;;;;;;;;;;;;16.15;70.77;100914.81;4956651;29;19930;-81
2023/07/27 00:34:52;;;;;;;;;;;;;;;16.05;68.88;100911.69;4957233;29;19930;-81
2023/07/27 00:37:17;;;;;;;;;;;;;;;16.00;66.84;100908.34;4960854;28;20287;-82
2023/07/27 00:39:43;;;;;;;;;;;;;;;16.00;69.06;100904.78;4957025;29;20033;-82
2023/07/27 00:42:08;;;;;;;;;;;;;;;15.99;68.47;100905.72;4956295;29;19922;-82
2023/07/27 00:44:33;;;;;;;;;;;;;;;15.93;69.62;100893.53;4956066;29;19926;-81
2023/07/27 00:46:59;;;;;;;;;;;;;;;15.88;73.53;100900.88;4956678;28;19922;-81
2023/07/27 00:49:24;;;;;;;;;;;;;;;15.84;71.92;100897.44;4956143;29;19968;-81
2023/07/27 00:51:50;;;;;;;;;;;;;;;15.79;70.26;100896.78;4956706;29;19926;-81
2023/07/27 00:54:16;;;;;;;;;;;;;;;15.76;73.90;100894.25;4957337;28;20443;-81
2023/07/27 00:56:42;;;;;;;;;;;;;;;15.71;71.47;100882.88;4957433;29;19930;-81
2023/07/27 00:59:07;;;;;;;;;;;;;;;15.67;70.95;100878.56;4957135;28;20339;-81
2023/07/27 01:01:33;;;;;;;;;;;;;;;15.63;71.17;100877.84;4938834;29;19922;-81
2023/07/27 01:03:58;;;;;;;;;;;;;;;15.62;72.20;100875.22;4955103;29;20340;-82
2023/07/27 01:06:24;;;;;;;;;;;;;;;15.61;72.93;100866.34;4935631;29;19926;-82
2023/07/27 01:08:53;;;;;;;;;;;;;;;15.61;71.76;100866.34;4950146;29;19927;-82
2023/07/27 01:11:26;;;;;;;;;;;;;;;15.63;72.59;100861.81;4935032;29;20004;-82
2023/07/27 01:13:56;;;;;;;;;;;;;;;15.65;74.08;100851.06;4938857;29;20018;-82
2023/07/27 01:16:27;;;;;;;;;;;;;;;15.65;73.58;100848.41;4938866;29;20057;-82
2023/07/27 01:19:04;;;;;;;;;;;;;;;15.66;76.43;100839.47;4942440;29;19925;-82
2023/07/27 01:21:32;;;;;;;;;;;;;;;15.64;76.43;100842.19;4938148;29;19961;-82
2023/07/27 01:23:57;;;;;;;;;;;;;;;15.62;75.56;100838.72;4954756;29;20009;-82
2023/07/27 01:26:37;;;;;;;;;;;;;;;15.60;75.07;100829.94;4938616;29;19965;-83
2023/07/27 01:29:05;;;;;;;;;;;;;;;15.57;75.05;100827.38;4943282;29;19970;-83
2023/07/27 01:31:32;;;;;;;;;;;;;;;15.54;74.71;100832.84;4938302;29;19922;-82
2023/07/27 01:33:59;;;;;;;;;;;;;;;15.53;74.68;100828.47;4954057;29;19985;-82
2023/07/27 01:36:27;;;;;;;;;;;;;;;15.48;73.87;100825.97;4930365;29;19930;-82
2023/07/27 01:38:54;;;;;;;;;;;;;;;15.46;74.25;100821.66;4956070;29;19915;-82
2023/07/27 01:41:22;;;;;;;;;;;;;;;15.47;75.16;100815.34;4955821;28;19941;-82
2023/07/27 01:43:48;;;;;;;;;;;;;;;15.49;77.23;100811.69;4955213;29;20355;-82
2023/07/27 01:46:15;;;;;;;;;;;;;;;15.46;75.96;100817.16;4955553;29;19947;-82
2023/07/27 01:48:42;;;;;;;;;;;;;;;15.44;75.97;100807.50;4970048;28;19927;-82
2023/07/27 01:51:09;;;;;;;;;;;;;;;15.44;75.46;100807.50;4937957;29;19980;-82
2023/07/27 01:53:35;;;;;;;;;;;;;;;15.42;74.50;100798.69;4955100;29;20361;-81
2023/07/27 01:56:02;;;;;;;;;;;;;;;15.42;75.94;100798.69;4955001;29;19918;-82
2023/07/27 01:58:28;;;;;;;;;;;;;;;15.39;76.00;100794.34;4929566;29;20372;-82
2023/07/27 02:00:55;;;;;;;;;;;;;;;15.40;76.75;100788.06;4940415;29;19918;-82
2023/07/27 02:03:21;;;;;;;;;;;;;;;15.39;77.29;100782.81;4943397;29;19969;-81
2023/07/27 02:05:46;;;;;;;;;;;;;;;15.33;75.88;100778.59;4941901;28;20350;-81
2023/07/27 02:08:12;;;;;;;;;;;;;;;15.27;74.49;100777.03;4954311;28;19918;-81
2023/07/27 02:10:39;;;;;;;;;;;;;;;15.26;75.84;100767.31;4931763;29;19920;-81
2023/07/27 02:13:15;;;;;;;;;;;;;;;15.23;79.27;100761.22;4965472;28;19918;-81
2023/07/27 02:15:46;;;;;;;;;;;;;;;15.18;77.81;100764.13;4945592;29;19918;-81
2023/07/27 02:18:16;;;;;;;;;;;;;;;15.16;80.20;100757.97;4944430;29;19918;-82
2023/07/27 02:20:42;;;;;;;;;;;;;;;15.16;78.41;100754.44;4958605;29;19926;-82
2023/07/27 02:23:08;;;;;;;;;;;;;;;15.15;80.97;100750.88;4956124;29;19919;-82
2023/07/27 02:25:33;;;;;;;;;;;;;;;15.13;79.93;100736.75;4955688;29;20397;-82
2023/07/27 02:27:59;;;;;;;;;;;;;;;15.13;79.66;100726.06;4941020;29;20012;-81
2023/07/27 02:30:24;;;;;;;;;;;;;;;15.13;78.64;100725.22;4937594;29;20018;-82
2023/07/27 02:32:50;;;;;;;;;;;;;;;15.12;79.13;100720.81;4929068;28;20006;-82
2023/07/27 02:35:17;;;;;;;;;;;;;;;15.12;80.74;100727.03;4919792;29;20039;-81
2023/07/27 02:37:49;;;;;;;;;;;;;;;15.07;81.90;100722.81;4946256;29;19923;-82
2023/07/27 02:40:14;;;;;;;;;;;;;;;15.01;81.61;100719.50;4937299;29;19970;-82
2023/07/27 02:42:40;;;;;;;;;;;;;;;14.96;78.49;100723.25;4952348;29;19923;-81
2023/07/27 02:45:05;;;;;;;;;;;;;;;14.94;81.44;100706.47;4922151;29;19919;-81
2023/07/27 02:47:36;;;;;;;;;;;;;;;14.92;80.15;100708.34;4945341;29;19923;-82
2023/07/27 02:50:01;;;;;;;;;;;;;;;14.89;81.95;100697.81;4924334;29;19934;-81
2023/07/27 02:52:28;;;;;;;;;;;;;;;14.88;81.91;100702.25;4920699;29;19929;-81
2023/07/27 02:54:53;;;;;;;;;;;;;;;14.85;82.58;100694.38;4936778;29;20307;-82
2023/07/27 02:57:19;;;;;;;;;;;;;;;14.85;82.47;100691.72;4939028;29;20041;-82
2023/07/27 02:59:48;;;;;;;;;;;;;;;14.86;81.57;100689.91;4936381;29;19930;-82
2023/07/27 03:02:13;;;;;;;;;;;;;;;14.86;82.37;100693.47;4933531;29;19923;-81
2023/07/27 03:04:41;;;;;;;;;;;;;;;14.83;81.62;100689.09;4933576;29;20390;-81
2023/07/27 03:07:08;;;;;;;;;;;;;;;14.86;83.27;100682.81;4917694;29;19959;-80
2023/07/27 03:09:35;;;;;;;;;;;;;;;14.86;81.63;100672.16;4938438;29;19930;-80
2023/07/27 03:12:00;;;;;;;;;;;;;;;14.85;84.94;100670.41;4923582;29;19982;-81
2023/07/27 03:14:25;;;;;;;;;;;;;;;14.83;83.90;100667.78;4933714;29;19923;-80
2023/07/27 03:16:51;;;;;;;;;;;;;;;14.82;84.05;100663.41;4934840;29;20441;-80
2023/07/27 03:19:16;;;;;;;;;;;;;;;14.82;84.03;100659.88;4934415;29;19941;-80
2023/07/27 03:21:42;;;;;;;;;;;;;;;14.80;83.71;100649.25;4918194;29;19926;-80
2023/07/27 03:24:07;;;;;;;;;;;;;;;14.79;86.32;100647.53;4932895;29;19926;-79
2023/07/27 03:26:32;;;;;;;;;;;;;;;14.75;86.00;100637.06;4917620;29;19918;-80
2023/07/27 03:29:00;;;;;;;;;;;;;;;14.74;85.79;100624.69;4941025;29;22154;-79
2023/07/27 03:31:26;;;;;;;;;;;;;;;14.72;85.05;100624.72;4953823;29;19922;-78
2023/07/27 03:33:52;;;;;;;;;;;;;;;14.69;82.60;100600.00;4936731;29;19918;-79
2023/07/27 03:36:18;;;;;;;;;;;;;;;14.67;82.78;100597.41;4952797;29;19925;-79
2023/07/27 03:38:44;;;;;;;;;;;;;;;14.65;84.98;100585.94;4936783;29;19922;-79
2023/07/27 03:41:09;;;;;;;;;;;;;;;14.64;86.57;100581.56;4954069;29;19919;-80
2023/07/27 03:43:35;;;;;;;;;;;;;;;14.63;85.36;100579.81;4937367;29;20490;-81
2023/07/27 03:46:01;;;;;;;;;;;;;;;14.60;86.46;100580.81;4940402;29;20369;-81
2023/07/27 03:48:26;;;;;;;;;;;;;;;14.58;87.39;100574.66;4955724;29;19931;-80
2023/07/27 03:50:52;;;;;;;;;;;;;;;14.55;90.86;100573.94;4957260;29;20021;-80
2023/07/27 03:53:18;;;;;;;;;;;;;;;14.54;86.31;100574.88;4956339;29;19918;-81
2023/07/27 03:55:43;;;;;;;;;;;;;;;14.53;89.49;100568.69;4951293;28;19941;-81
2023/07/27 03:58:08;;;;;;;;;;;;;;;14.53;87.66;100562.44;4942875;29;20278;-82
2023/07/27 04:00:34;;;;;;;;;;;;;;;14.52;87.76;100558.06;4956494;28;19926;-82
2023/07/27 04:02:59;;;;;;;;;;;;;;;14.53;88.17;100558.03;4947554;29;19915;-81
2023/07/27 04:05:25;;;;;;;;;;;;;;;14.55;89.36;100555.31;4957285;29;19937;-81
2023/07/27 04:07:51;;;;;;;;;;;;;;;14.55;87.76;100556.16;4957586;29;19929;-81
2023/07/27 04:10:17;;;;;;;;;;;;;;;14.60;90.05;100556.81;4967322;28;19936;-80
2023/07/27 04:12:43;;;;;;;;;;;;;;;14.65;92.70;100553.09;4958126;29;20020;-82
2023/07/27 04:15:08;;;;;;;;;;;;;;;14.65;92.76;100553.09;4958331;29;20370;-82
2023/07/27 04:17:34;;;;;;;;;;;;;;;14.65;92.53;100539.78;4957905;29;20291;-82
2023/07/27 04:19:59;;;;;;;;;;;;;;;14.60;92.69;100538.16;4939718;29;20001;-81
2023/07/27 04:22:25;;;;;;;;;;;;;;;14.62;91.12;100540.78;4957057;29;19934;-81
2023/07/27 04:24:50;;;;;;;;;;;;;;;14.61;91.69;100531.03;4954912;28;19922;-82
2023/07/27 04:27:15;;;;;;;;;;;;;;;14.63;89.73;100519.38;4956908;29;19969;-82
2023/07/27 04:29:41;;;;;;;;;;;;;;;14.66;93.00;100515.72;4955377;29;19923;-79
2023/07/27 04:32:07;;;;;;;;;;;;;;;14.67;92.80;100517.47;4955017;29;19923;-79
2023/07/27 04:34:32;;;;;;;;;;;;;;;14.67;90.19;100513.94;4954641;29;20025;-78
2023/07/27 04:36:57;;;;;;;;;;;;;;;14.70;89.43;100511.13;4956420;29;19929;-79
2023/07/27 04:39:23;;;;;;;;;;;;;;;14.69;92.30;100507.59;4956585;29;20420;-81
2023/07/27 04:41:48;;;;;;;;;;;;;;;14.68;92.91;100505.00;4955463;29;20009;-81
2023/07/27 04:44:13;;;;;;;;;;;;;;;14.74;91.13;100496.75;4955164;29;19919;-80
2023/07/27 04:46:39;;;;;;;;;;;;;;;14.69;90.61;100494.28;4956910;29;20378;-80
2023/07/27 04:49:06;;;;;;;;;;;;;;;14.70;91.21;100493.31;4955332;29;19926;-80
2023/07/27 04:51:32;;;;;;;;;;;;;;;14.70;94.71;100492.47;4956423;29;19918;-81
2023/07/27 04:53:57;;;;;;;;;;;;;;;14.71;95.77;100481.75;4971787;28;19981;-82
2023/07/27 04:56:23;;;;;;;;;;;;;;;14.71;98.20;100480.88;4954360;28;20286;-82
2023/07/27 04:58:48;;;;;;;;;;;;;;;14.70;96.02;100489.81;4955004;29;19922;-81
2023/07/27 05:01:13;;;;;;;;;;;;;;;14.74;95.22;100483.41;4956462;29;20025;-81
2023/07/27 05:03:39;;;;;;;;;;;;;;;14.72;91.92;100478.13;4956501;29;19919;-81
2023/07/27 05:06:04;;;;;;;;;;;;;;;14.73;94.96;100479.00;4954832;29;19926;-82
2023/07/27 05:08:29;;;;;;;;;;;;;;;14.74;98.87;100472.75;4956090;28;19931;-82
2023/07/27 05:10:55;;;;;;;;;;;;;;;14.76;95.00;100470.84;4948079;28;20012;-81
2023/07/27 05:13:20;;;;;;;;;;;;;;;14.76;96.14;100455.75;4956016;29;19922;-82
2023/07/27 05:15:46;;;;;;;;;;;;;;;14.81;97.68;100461.75;4955593;29;19926;-81
2023/07/27 05:18:13;;;;;;;;;;;;;;;14.82;96.84;100454.59;4937541;29;19930;-82
2023/07/27 05:20:38;;;;;;;;;;;;;;;14.82;95.88;100455.47;4948362;29;19922;-83
2023/07/27 05:23:04;;;;;;;;;;;;;;;14.84;93.76;100450.06;4945944;29;19922;-82
2023/07/27 05:25:29;;;;;;;;;;;;;;;14.84;95.24;100447.41;4952450;29;19965;-82
2023/07/27 05:27:55;;;;;;;;;;;;;;;14.84;97.39;100437.59;4956445;28;19926;-82
2023/07/27 05:30:20;;;;;;;;;;;;;;;14.86;96.93;100444.66;4936331;29;20339;-82
2023/07/27 05:32:45;;;;;;;;;;;;;;;14.86;100.00;100441.97;4936354;29;19944;-82
2023/07/27 05:35:11;;;;;;;;;;;;;;;14.83;98.63;100438.53;4936609;29;20017;-83
2023/07/27 05:37:37;;;;;;;;;;;;;;;14.89;97.32;100433.88;4936401;29;19954;-81
2023/07/27 05:40:04;;;;;;;;;;;;;;;14.93;98.29;100440.78;4936291;29;19923;-82
2023/07/27 05:42:30;;;;;;;;;;;;;;;14.94;99.90;100445.19;4919810;29;20275;-82
2023/07/27 05:44:55;;;;;;;;;;;;;;;14.94;98.86;100431.84;4927260;29;19919;-82
2023/07/27 05:47:20;;;;;;;;;;;;;;;14.98;97.00;100428.94;4935689;29;19978;-82
2023/07/27 05:49:46;;;;;;;;;;;;;;;15.01;96.63;100430.63;4902787;29;19933;-82
2023/07/27 05:52:11;;;;;;;;;;;;;;;15.00;97.07;100434.22;4919251;29;19923;-83
2023/07/27 05:54:37;;;;;;;;;;;;;;;15.05;93.49;100430.38;4918972;29;19986;-82
2023/07/27 05:57:02;;;;;;;;;;;;;;;15.08;98.98;100429.38;4918250;29;19919;-82
2023/07/27 05:59:28;;;;;;;;;;;;;;;15.11;97.46;100431.03;4918734;29;19922;-82
2023/07/27 06:01:53;;;;;;;;;;;;;;;15.15;97.91;100422.81;4935610;29;19923;-81
2023/07/27 06:04:19;;;;;;;;;;;;;;;15.17;96.84;100420.94;4917955;29;20404;-81
2023/07/27 06:06:46;;;;;;;;;;;;;;;15.18;99.09;100427.16;4918084;29;19977;-81
2023/07/27 06:09:12;;;;;;;;;;;;;;;15.19;99.84;100424.41;4934956;29;19934;-81
2023/07/27 06:11:37;;;;;;;;;;;;;;;15.19;97.10;100421.75;4933988;29;19938;-81
2023/07/27 06:14:03;;;;;;;;;;;;;;;15.21;98.03;100417.22;4935412;29;19918;-82
2023/07/27 06:16:28;;;;;;;;;;;;;;;15.24;97.55;100414.38;4935315;29;19954;-83
2023/07/27 06:18:53;;;;;;;;;;;;;;;15.29;96.20;100413.31;4918097;29;19927;-83
2023/07/27 06:21:19;;;;;;;;;;;;;;;15.30;98.12;100412.38;4918709;29;19930;-83
2023/07/27 06:23:44;;;;;;;;;;;;;;;15.30;95.79;100412.38;4935722;29;19926;-83
2023/07/27 06:26:10;;;;;;;;;;;;;;;15.34;100.00;100406.81;4918481;29;19927;-83
2023/07/27 06:28:35;;;;;;;;;;;;;;;15.37;100.00;100403.97;4935853;29;19927;-83
2023/07/27 06:31:04;;;;;;;;;;;;;;;15.41;100.00;100402.91;4935752;29;20025;-83
2023/07/27 06:33:29;;;;;;;;;;;;;;;15.44;100.00;100400.09;4936031;29;19941;-83
2023/07/27 06:35:55;;;;;;;;;;;;;;;15.44;97.88;100400.09;4935707;29;20362;-83
2023/07/27 06:38:20;;;;;;;;;;;;;;;15.54;98.72;100399.63;4933819;29;19923;-82
2023/07/27 06:40:45;;;;;;;;;;;;;;;15.53;100.00;100403.22;4944929;29;20340;-82
2023/07/27 06:43:12;;;;;;;;;;;;;;;15.56;100.00;100392.44;4935184;29;19930;-82
2023/07/27 06:45:37;;;;;;;;;;;;;;;15.58;100.00;100391.41;4937313;29;19966;-82
2023/07/27 06:48:03;;;;;;;;;;;;;;;15.65;99.30;100399.94;4935945;29;19978;-82
2023/07/27 06:50:28;;;;;;;;;;;;;;;15.67;100.00;100384.72;4933746;29;20094;-82
2023/07/27 06:52:54;;;;;;;;;;;;;;;15.71;100.00;100381.00;4943657;29;20383;-82
2023/07/27 06:55:19;;;;;;;;;;;;;;;15.77;100.00;100401.19;4934629;29;20172;-81
2023/07/27 06:57:44;;;;;;;;;;;;;;;15.78;100.00;100394.91;4901951;29;19926;-81
2023/07/27 07:00:10;;;;;;;;;;;;;;;15.81;100.00;100387.59;4934658;29;19973;-81
2023/07/27 07:02:35;;;;;;;;;;;;;;;15.83;100.00;100393.72;4901741;29;20294;-83
2023/07/27 07:05:01;;;;;;;;;;;;;;;15.90;100.00;100388.97;4902315;29;20248;-83
2023/07/27 07:07:26;;;;;;;;;;;;;;;15.91;100.00;100390.66;4935260;29;20339;-82
2023/07/27 07:09:52;;;;;;;;;;;;;;;15.94;100.00;100400.31;4933250;29;19922;-82
2023/07/27 07:12:17;;;;;;;;;;;;;;;15.95;100.00;100394.03;4939867;29;19933;-82
2023/07/27 07:14:43;;;;;;;;;;;;;;;16.01;100.00;100391.91;4939224;29;20025;-82
2023/07/27 07:17:08;;;;;;;;;;;;;;;16.00;100.00;100381.31;4935981;29;19923;-83
2023/07/27 07:19:34;;;;;;;;;;;;;;;16.02;100.00;100388.31;4926887;29;19919;-82
2023/07/27 07:21:59;;;;;;;;;;;;;;;16.04;100.00;100394.44;4953605;29;20068;-82
2023/07/27 07:24:25;;;;;;;;;;;;;;;16.08;100.00;100385.31;4918239;29;19946;-82
2023/07/27 07:26:50;;;;;;;;;;;;;;;16.11;100.00;100385.16;4940541;29;19923;-82
2023/07/27 07:29:15;;;;;;;;;;;;;;;16.12;100.00;100388.69;4944953;29;20368;-82
2023/07/27 07:31:41;;;;;;;;;;;;;;;16.14;100.00;100389.47;4951963;29;19927;-82
2023/07/27 07:34:06;;;;;;;;;;;;;;;16.15;100.00;100385.88;4973621;28;19927;-82
2023/07/27 07:36:32;;;;;;;;;;;;;;;16.18;100.00;100375.03;4958562;29;19922;-82
2023/07/27 07:38:57;;;;;;;;;;;;;;;16.19;100.00;100382.06;4926768;29;19923;-82
2023/07/27 07:41:23;;;;;;;;;;;;;;;16.22;100.00;100376.59;4959000;29;20058;-82
2023/07/27 07:43:48;;;;;;;;;;;;;;;16.25;100.00;100372.91;4958960;29;19965;-82
2023/07/27 07:46:14;;;;;;;;;;;;;;;16.24;100.00;100372.00;4959465;29;19918;-82
2023/07/27 07:48:39;;;;;;;;;;;;;;;16.26;100.00;100370.13;4944764;29;19973;-82
2023/07/27 07:51:09;;;;;;;;;;;;;;;16.28;100.00;100368.25;4946530;29;20085;-81
2023/07/27 07:53:34;;;;;;;;;;;;;;;16.30;100.00;100360.16;4955670;29;20047;-80
2023/07/27 07:55:59;;;;;;;;;;;;;;;16.37;100.00;100360.66;4955593;29;20048;-81
2023/07/27 07:58:25;;;;;;;;;;;;;;;16.42;100.00;100362.19;4943614;29;19937;-83
2023/07/27 08:00:50;;;;;;;;;;;;;;;16.47;100.00;100362.78;4956612;29;19922;-83
2023/07/27 08:03:16;;;;;;;;;;;;;;;16.56;100.00;100361.41;4923344;29;20060;-83
2023/07/27 08:05:42;;;;;;;;;;;;;;;16.61;100.00;100361.16;4956697;29;19970;-81
2023/07/27 08:08:07;;;;;;;;;;;;;;;16.65;100.00;100355.56;4963362;28;19922;-81
2023/07/27 08:10:32;;;;;;;;;;;;;;;16.71;100.00;100360.56;4948194;28;20269;-81
2023/07/27 08:12:58;;;;;;;;;;;;;;;16.76;100.00;100352.28;4923563;28;19919;-81
2023/07/27 08:15:23;;;;;;;;;;;;;;;16.81;100.00;100357.44;4938545;28;19918;-81
2023/07/27 08:17:49;;;;;;;;;;;;;;;16.83;100.00;100358.22;4943011;28;20017;-81
2023/07/27 08:20:14;;;;;;;;;;;;;;;16.84;100.00;100357.25;4939268;28;19922;-82
2023/07/27 08:22:39;;;;;;;;;;;;;;;16.87;100.00;100359.78;4942784;28;19922;-81
2023/07/27 08:25:05;;;;;;;;;;;;;;;16.87;100.00;100359.78;4937423;28;19927;-81
2023/07/27 08:27:34;;;;;;;;;;;;;;;16.92;100.00;100347.88;4925101;28;19960;-82
2023/07/27 08:30:00;;;;;;;;;;;;;;;16.92;100.00;100361.22;4958169;28;20420;-82
2023/07/27 08:32:25;;;;;;;;;;;;;;;16.98;100.00;100360.03;4947481;28;19930;-82
2023/07/27 08:34:51;;;;;;;;;;;;;;;17.00;100.00;100347.44;4963356;28;20014;-83
2023/07/27 08:37:16;;;;;;;;;;;;;;;17.01;100.00;100351.81;4945155;29;20358;-83
2023/07/27 08:39:42;;;;;;;;;;;;;;;17.03;100.00;100351.75;4928749;29;20054;-82
2023/07/27 08:42:08;;;;;;;;;;;;;;;17.01;100.00;100348.28;4951147;29;19923;-80
2023/07/27 08:44:33;;;;;;;;;;;;;;;17.05;100.00;100349.84;4956191;29;20001;-81
2023/07/27 08:47:00;;;;;;;;;;;;;;;17.08;100.00;100349.66;4945953;29;19960;-81
2023/07/27 08:49:25;;;;;;;;;;;;;;;17.12;100.00;100346.72;4957227;29;20278;-81
2023/07/27 08:51:51;;;;;;;;;;;;;;;17.23;100.00;100342.56;4940602;29;20021;-82
2023/07/27 08:54:16;;;;;;;;;;;;;;;17.16;100.00;100337.59;4958734;29;19922;-83
2023/07/27 08:56:42;;;;;;;;;;;;;;;17.18;100.00;100334.81;4958772;29;19922;-83
2023/07/27 08:59:07;;;;;;;;;;;;;;;17.23;100.00;100345.25;4974434;28;19923;-83
2023/07/27 09:01:32;;;;;;;;;;;;;;;17.26;100.00;100345.06;4964383;28;19922;-82
2023/07/27 09:03:58;;;;;;;;;;;;;;;17.27;100.00;100346.81;4959379;29;20334;-82
2023/07/27 09:06:40;;;;;;;;;;;;;;;17.26;100.00;100348.63;4958862;29;19922;-83
2023/07/27 09:09:35;;;;;;;;;;;;;;;17.28;100.00;100345.84;4957792;28;19926;-82
2023/07/27 09:12:03;;;;;;;;;;;;;;;17.29;100.00;100348.44;4945170;29;19938;-83
2023/07/27 09:14:34;;;;;;;;;;;;;;;17.35;100.00;100341.88;4941824;29;19982;-83
2023/07/27 09:16:59;;;;;;;;;;;;;;;17.35;100.00;100345.41;4951382;29;19922;-82
2023/07/27 09:19:25;;;;;;;;;;;;;;;17.38;100.00;100349.72;4954803;29;20266;-79
2023/07/27 09:21:52;;;;;;;;;;;;;;;17.44;100.00;100346.69;4937820;29;19949;-81
2023/07/27 09:24:18;;;;;;;;;;;;;;;17.52;100.00;100344.44;4953208;29;19972;-80
2023/07/27 09:26:45;;;;;;;;;;;;;;;17.58;100.00;100341.41;4954893;29;20322;-81
2023/07/27 09:29:11;;;;;;;;;;;;;;;17.56;100.00;100339.78;4934302;29;20312;-81
2023/07/27 09:31:42;;;;;;;;;;;;;;;17.60;100.00;100333.25;4935619;29;19923;-81
2023/07/27 09:34:08;;;;;;;;;;;;;;;17.60;100.00;100339.47;4945063;29;19919;-81
2023/07/27 09:36:33;;;;;;;;;;;;;;;17.57;100.00;100341.47;4935926;29;19946;-81
2023/07/27 09:38:59;;;;;;;;;;;;;;;17.57;100.00;100344.16;4925952;29;20025;-81
2023/07/27 09:41:25;;;;;;;;;;;;;;;17.54;100.00;100350.56;4918505;29;20227;-80
2023/07/27 09:43:50;;;;;;;;;;;;;;;17.55;100.00;100343.38;4936051;29;19919;-81
2023/07/27 09:46:20;;;;;;;;;;;;;;;17.58;100.00;100346.75;4936503;29;19966;-81
2023/07/27 09:48:46;;;;;;;;;;;;;;;17.63;100.00;100342.00;4931867;29;19941;-81
2023/07/27 09:51:12;;;;;;;;;;;;;;;17.52;100.00;100343.56;4934413;29;19926;-83
2023/07/27 09:53:39;;;;;;;;;;;;;;;17.48;100.00;100342.91;4935154;29;20025;-84
2023/07/27 09:56:05;;;;;;;;;;;;;;;17.45;100.00;100342.19;4918487;29;19923;-83
2023/07/27 09:58:32;;;;;;;;;;;;;;;17.44;100.00;100352.06;4923939;29;19922;-82
2023/07/27 10:00:57;;;;;;;;;;;;;;;17.48;100.00;100337.56;4914649;29;20334;-81
2023/07/27 10:03:23;;;;;;;;;;;;;;;17.52;100.00;100340.88;4918041;29;19969;-81
2023/07/27 10:05:48;;;;;;;;;;;;;;;17.55;100.00;100348.75;4918004;29;19997;-82
2023/07/27 10:08:15;;;;;;;;;;;;;;;17.60;100.00;100346.66;4935210;29;19922;-81
2023/07/27 10:10:42;;;;;;;;;;;;;;;17.57;100.00;100352.19;4925504;29;19923;-83
2023/07/27 10:13:12;;;;;;;;;;;;;;;17.62;100.00;100352.78;4922610;29;19931;-83
2023/07/27 10:15:41;;;;;;;;;;;;;;;17.69;100.00;100347.94;4922230;29;20017;-83
2023/07/27 10:18:07;;;;;;;;;;;;;;;17.78;100.00;100345.56;4943586;29;20392;-79
2023/07/27 10:20:33;;;;;;;;;;;;;;;17.91;100.00;100334.16;4934830;29;19930;-80
2023/07/27 10:23:18;;;;;;;;;;;;;;;17.98;100.00;100333.69;4935105;29;19926;-80
2023/07/27 10:25:56;;;;;;;;;;;;;;;18.03;100.00;100345.00;4933191;29;20003;-79
2023/07/27 10:28:31;;;;;;;;;;;;;;;18.08;100.00;100347.38;4917913;29;20008;-79
2023/07/27 10:31:15;;;;;;;;;;;;;;;18.13;100.00;100333.72;4950748;29;19926;-81
2023/07/27 10:33:49;;;;;;;;;;;;;;;18.12;100.00;100340.00;4954152;29;19937;-81
2023/07/27 10:36:15;;;;;;;;;;;;;;;18.05;100.00;100350.22;4954430;29;19930;-82
2023/07/27 10:38:49;;;;;;;;;;;;;;;18.09;100.00;100338.38;4954205;29;19930;-81
2023/07/27 10:41:14;;;;;;;;;;;;;;;18.07;100.00;100342.13;4921947;29;19925;-82
2023/07/27 10:43:58;;;;;;;;;;;;;;;18.01;100.00;100336.19;4934654;29;20274;-81
2023/07/27 10:46:23;;;;;;;;;;;;;;;17.97;100.00;100334.63;4933934;29;19926;-80
2023/07/27 10:49:09;;;;;;;;;;;;;;;18.01;100.00;100344.22;4917471;29;19986;-81
2023/07/27 10:51:34;;;;;;;;;;;;;;;18.02;100.00;100351.28;4930755;29;20363;-81
2023/07/27 10:54:00;;;;;;;;;;;;;;;18.06;100.00;100346.63;4935662;29;19974;-81
2023/07/27 10:56:25;;;;;;;;;;;;;;;18.09;100.00;100349.09;4938258;29;19915;-80
2023/07/27 10:58:54;;;;;;;;;;;;;;;18.12;100.00;100340.88;4953293;29;19919;-80
2023/07/27 11:01:19;;;;;;;;;;;;;;;18.18;100.00;100345.00;4934231;29;19969;-81
2023/07/27 11:03:45;;;;;;;;;;;;;;;18.21;100.00;100339.47;4938247;29;20359;-81
2023/07/27 11:06:10;;;;;;;;;;;;;;;18.16;100.00;100338.88;4920857;29;19952;-81
2023/07/27 11:08:45;;;;;;;;;;;;;;;18.13;100.00;100339.94;4930576;28;19918;-81
2023/07/27 11:11:17;;;;;;;;;;;;;;;18.10;100.00;100342.81;4934007;29;19926;-80
2023/07/27 11:13:57;;;;;;;;;;;;;;;18.14;100.00;100349.69;4921755;29;19923;-81
2023/07/27 11:16:31;;;;;;;;;;;;;;;18.14;100.00;100338.09;4911027;29;20298;-82
2023/07/27 11:18:57;;;;;;;;;;;;;;;18.19;100.00;100336.00;4937842;29;19935;-80
2023/07/27 11:21:23;;;;;;;;;;;;;;;18.21;100.00;100345.66;4938438;29;19929;-81
2023/07/27 11:23:48;;;;;;;;;;;;;;;18.22;100.00;100328.66;4938604;29;19922;-81
2023/07/27 11:26:17;;;;;;;;;;;;;;;18.26;100.00;100332.00;4936450;29;20337;-80
2023/07/27 11:28:43;;;;;;;;;;;;;;;18.28;100.00;100330.09;4938303;29;19958;-81
2023/07/27 11:31:08;;;;;;;;;;;;;;;18.30;100.00;100338.91;4955333;29;19969;-82
2023/07/27 11:33:34;;;;;;;;;;;;;;;18.20;100.00;100330.56;4957278;29;20445;-81
2023/07/27 11:36:00;;;;;;;;;;;;;;;18.20;100.00;100333.25;4956996;29;19918;-81
2023/07/27 11:38:27;;;;;;;;;;;;;;;18.16;100.00;100325.47;4961479;28;19965;-80
2023/07/27 11:40:54;;;;;;;;;;;;;;;18.24;100.00;100333.91;4940279;29;20390;-81
2023/07/27 11:43:23;;;;;;;;;;;;;;;18.16;100.00;100336.19;4939738;29;19925;-80
2023/07/27 11:45:48;;;;;;;;;;;;;;;18.18;100.00;100334.28;4923997;29;19923;-81
2023/07/27 11:48:14;;;;;;;;;;;;;;;18.18;100.00;100331.63;4957106;29;19922;-81
2023/07/27 11:50:39;;;;;;;;;;;;;;;18.18;100.00;100324.44;4939497;29;20369;-81
2023/07/27 11:53:11;;;;;;;;;;;;;;;18.15;100.00;100338.03;4957041;29;20016;-81
2023/07/27 11:55:37;;;;;;;;;;;;;;;18.28;100.00;100327.41;4940549;29;19974;-82
2023/07/27 11:58:09;;;;;;;;;;;;;;;18.25;100.00;100335.63;4939885;29;19922;-79
2023/07/27 12:00:36;;;;;;;;;;;;;;;18.24;100.00;100326.72;4956607;29;19966;-81
2023/07/27 12:03:03;;;;;;;;;;;;;;;18.29;100.00;100329.09;4956637;29;19927;-80
2023/07/27 12:05:29;;;;;;;;;;;;;;;18.33;100.00;100329.81;4956069;28;19930;-80
2023/07/27 12:07:56;;;;;;;;;;;;;;;18.33;100.00;100336.00;4939424;29;19922;-79
2023/07/27 12:10:22;;;;;;;;;;;;;;;18.36;100.00;100338.50;4939289;29;19915;-81
2023/07/27 12:12:54;;;;;;;;;;;;;;;18.35;100.00;100336.78;4956288;29;19926;-81
2023/07/27 12:15:27;;;;;;;;;;;;;;;18.42;100.00;100340.81;4956122;29;19961;-80
2023/07/27 12:17:54;;;;;;;;;;;;;;;18.41;100.00;100338.22;4939428;29;19937;-81
2023/07/27 12:20:19;;;;;;;;;;;;;;;18.43;100.00;100339.84;4956211;29;19918;-81
2023/07/27 12:22:45;;;;;;;;;;;;;;;18.56;100.00;100341.75;4956399;29;19933;-82
2023/07/27 12:25:10;;;;;;;;;;;;;;;18.52;100.00;100330.38;4937355;29;20382;-81
2023/07/27 12:28:06;;;;;;;;;;;;;;;18.57;100.00;100332.75;4956132;29;19918;-82
2023/07/27 12:31:28;;;;;;;;;;;;;;;18.63;100.00;100329.69;4924772;29;19926;-82